Time;durP1;ratioP1;P1;durP2;ratioP2;P2;SDS_P1;SDS_P2;PMS_P1;PMS_P2;Temp;Humidity;BMP_temperature;BMP_pressure;BME280_temperature;BME280_humidity;BME280_pressure;Samples;Min_cycle;Max_cycle;Signal;HPM_P1;HPM_P2
2022/12/12 00:00:59;;;;;;;42.17;17.88;;;;;;;-0.15;100.00;101032.84;4996750;28;20033;-72
2022/12/12 00:03:24;;;;;;;49.15;20.35;;;;;;;-0.19;100.00;101041.63;4996297;28;20387;-75
2022/12/12 00:05:54;;;;;;;46.35;18.50;;;;;;;-0.29;100.00;101033.06;4996383;28;20271;-74
2022/12/12 00:08:20;;;;;;;53.45;19.92;;;;;;;-0.30;100.00;101031.31;4984290;28;20048;-73
2022/12/12 00:10:45;;;;;;;49.30;17.20;;;;;;;-0.31;100.00;101028.72;4998686;28;20939;-73
2022/12/12 00:13:11;;;;;;;43.50;19.63;;;;;;;-0.25;100.00;101033.88;4985408;28;20038;-72
2022/12/12 00:15:36;;;;;;;50.03;20.48;;;;;;;-0.13;100.00;101032.81;4998070;28;20049;-72
2022/12/12 00:18:02;;;;;;;52.50;22.05;;;;;;;-0.21;100.00;101038.16;4998068;28;20045;-74
2022/12/12 00:20:27;;;;;;;51.15;19.42;;;;;;;-0.16;100.00;101035.47;4994236;28;20034;-73
2022/12/12 00:22:53;;;;;;;45.20;17.33;;;;;;;-0.22;100.00;101038.19;4996400;28;20050;-74
2022/12/12 00:25:18;;;;;;;45.67;19.10;;;;;;;-0.25;100.00;101036.50;4997715;28;20241;-74
2022/12/12 00:27:44;;;;;;;47.05;19.58;;;;;;;-0.30;100.00;101041.81;4966898;28;20190;-75
2022/12/12 00:30:10;;;;;;;47.00;21.05;;;;;;;-0.34;100.00;101031.41;4997021;28;20042;-76
2022/12/12 00:32:35;;;;;;;45.45;19.63;;;;;;;-0.27;100.00;101038.25;4981798;28;20037;-76
2022/12/12 00:35:01;;;;;;;56.58;20.95;;;;;;;-0.17;100.00;101041.59;4965639;28;20049;-74
2022/12/12 00:37:26;;;;;;;45.00;17.65;;;;;;;-0.24;100.00;101046.09;4997582;28;20048;-73
2022/12/12 00:39:52;;;;;;;46.60;19.60;;;;;;;-0.17;100.00;101054.69;4986770;28;20125;-74
2022/12/12 00:42:17;;;;;;;48.15;20.42;;;;;;;-0.15;100.00;101048.56;4974749;28;20037;-72
2022/12/12 00:44:43;;;;;;;50.28;18.63;;;;;;;-0.18;100.00;101051.22;4998063;28;20030;-73
2022/12/12 00:47:08;;;;;;;47.67;19.63;;;;;;;-0.27;100.00;101048.72;4997617;28;20149;-74
2022/12/12 00:49:34;;;;;;;47.10;18.27;;;;;;;-0.26;100.00;101050.47;4996714;28;20185;-73
2022/12/12 00:51:59;;;;;;;42.35;17.98;;;;;;;-0.14;100.00;101057.28;4996017;28;20121;-73
2022/12/12 00:54:24;;;;;;;40.00;17.25;;;;;;;-0.12;100.00;101047.63;4997578;28;20486;-74
2022/12/12 00:56:50;;;;;;;42.33;17.52;;;;;;;-0.17;100.00;101054.69;4964262;28;20828;-75
2022/12/12 00:59:16;;;;;;;46.30;18.17;;;;;;;-0.27;100.00;101049.59;4996612;28;20038;-74
2022/12/12 01:01:45;;;;;;;44.28;18.50;;;;;;;-0.19;100.00;101053.88;4986139;28;20036;-76
2022/12/12 01:04:11;;;;;;;40.58;17.83;;;;;;;-0.10;100.00;101054.59;4996918;28;20042;-73
2022/12/12 01:06:36;;;;;;;43.92;18.48;;;;;;;-0.14;100.00;101059.91;4996790;28;20033;-76
2022/12/12 01:09:01;;;;;;;45.30;18.08;;;;;;;-0.12;100.00;101056.34;4998298;28;20477;-74
2022/12/12 01:11:27;;;;;;;49.17;19.38;;;;;;;-0.13;100.00;101056.38;4972849;28;20084;-74
2022/12/12 01:13:53;;;;;;;42.90;18.33;;;;;;;-0.17;100.00;101052.94;4996606;28;20056;-74
2022/12/12 01:16:20;;;;;;;46.75;18.90;;;;;;;-0.18;100.00;101066.06;4985135;28;20053;-73
2022/12/12 01:18:46;;;;;;;43.15;18.98;;;;;;;-0.20;100.00;101063.50;4993295;28;20048;-75
2022/12/12 01:21:15;;;;;;;43.97;19.88;;;;;;;-0.18;100.00;101060.84;4996290;28;20046;-74
2022/12/12 01:23:41;;;;;;;47.08;19.02;;;;;;;-0.28;100.00;101060.13;4978040;28;20069;-75
2022/12/12 01:26:11;;;;;;;48.72;19.92;;;;;;;-0.20;100.00;101065.22;4981519;28;20068;-75
2022/12/12 01:28:36;;;;;;;43.25;19.08;;;;;;;-0.20;100.00;101065.22;4995982;28;20109;-75
2022/12/12 01:31:02;;;;;;;41.58;19.27;;;;;;;-0.27;100.00;101067.06;4984746;28;20566;-73
2022/12/12 01:33:27;;;;;;;54.47;19.05;;;;;;;-0.26;100.00;101067.03;4996545;28;20044;-73
2022/12/12 01:35:53;;;;;;;46.83;18.92;;;;;;;-0.15;100.00;101069.53;4963724;28;20045;-75
2022/12/12 01:38:18;;;;;;;42.85;18.85;;;;;;;-0.08;100.00;101067.66;4996294;28;20038;-73
2022/12/12 01:40:45;;;;;;;46.30;18.52;;;;;;;-0.11;100.00;101067.69;4997280;28;20044;-73
2022/12/12 01:43:13;;;;;;;41.97;17.55;;;;;;;-0.05;100.00;101070.22;4996933;28;20076;-73
2022/12/12 01:45:57;;;;;;;46.65;18.05;;;;;;;-0.12;100.00;101071.22;4982858;28;20026;-73
2022/12/12 01:48:44;;;;;;;46.90;17.88;;;;;;;-0.18;100.00;101076.56;4995636;28;20044;-74
2022/12/12 01:51:16;;;;;;;46.17;17.48;;;;;;;-0.17;100.00;101080.91;4995706;28;20478;-75
2022/12/12 01:53:43;;;;;;;46.38;17.02;;;;;;;-0.29;100.00;101085.44;4969982;28;20038;-75
2022/12/12 01:56:12;;;;;;;45.15;17.95;;;;;;;-0.28;100.00;101076.69;4996633;28;20449;-76
2022/12/12 01:58:44;;;;;;;45.22;16.83;;;;;;;-0.31;100.00;101081.09;4995062;28;20038;-74
2022/12/12 02:01:10;;;;;;;;;;;;;;;-0.32;100.00;101080.25;4996660;28;20053;-73
2022/12/12 02:03:37;;;;;;;41.88;18.02;;;;;;;-0.30;100.00;101075.00;4997490;28;19948;-73
2022/12/12 02:06:12;;;;;;;39.90;18.17;;;;;;;-0.36;100.00;101075.94;4983923;28;20028;-75
2022/12/12 02:08:39;;;;;;;46.35;18.77;;;;;;;-0.32;100.00;101076.75;4998938;28;20044;-74
2022/12/12 02:11:05;;;;;;;44.35;18.00;;;;;;;-0.32;100.00;101075.00;4999028;28;20766;-75
2022/12/12 02:13:33;;;;;;;43.55;18.02;;;;;;;-0.31;100.00;101081.97;4999182;28;20050;-75
2022/12/12 02:16:01;;;;;;;46.05;18.98;;;;;;;-0.33;100.00;101077.66;4986663;28;20065;-74
2022/12/12 02:18:39;;;;;;;42.20;17.73;;;;;;;-0.28;100.00;101076.69;4997899;28;20022;-75
2022/12/12 02:21:28;;;;;;;44.08;18.35;;;;;;;-0.30;100.00;101070.63;4995926;28;20595;-74
2022/12/12 02:24:07;;;;;;;37.88;17.83;;;;;;;-0.21;100.00;101076.59;4996480;28;20127;-74
2022/12/12 02:27:13;;;;;;;42.10;17.63;;;;;;;-0.20;100.00;101076.59;4985196;28;20034;-75
2022/12/12 02:30:12;;;;;;;44.95;16.73;;;;;;;-0.22;100.00;101073.13;4986424;28;20038;-73
2022/12/12 02:32:46;;;;;;;38.60;16.20;;;;;;;-0.19;100.00;101085.31;4997547;28;20133;-74
2022/12/12 02:35:18;;;;;;;36.42;15.90;;;;;;;-0.21;100.00;101082.69;4998396;28;20041;-74
2022/12/12 02:38:22;;;;;;;34.78;16.58;;;;;;;-0.27;100.00;101085.41;4998959;28;20037;-75
2022/12/12 02:40:50;;;;;;;40.42;16.85;;;;;;;-0.24;100.00;101087.16;4982775;28;20627;-75
2022/12/12 02:43:37;;;;;;;40.58;16.63;;;;;;;-0.29;100.00;101092.44;4984049;28;20041;-73
2022/12/12 02:46:20;;;;;;;40.33;17.67;;;;;;;-0.14;100.00;101097.47;4969722;28;20037;-74
2022/12/12 02:48:58;;;;;;;41.72;17.08;;;;;;;-0.20;100.00;101094.03;4994150;28;20038;-75
2022/12/12 02:51:25;;;;;;;38.97;16.55;;;;;;;-0.17;100.00;101102.72;4990677;28;20182;-74
2022/12/12 02:53:51;;;;;;;37.33;16.88;;;;;;;-0.21;100.00;101093.19;4998640;28;20053;-75
2022/12/12 02:56:41;;;;;;;43.60;17.85;;;;;;;-0.19;100.00;101088.81;4998572;28;20038;-73
2022/12/12 02:59:07;;;;;;;39.53;18.00;;;;;;;-0.23;100.00;101094.09;4996990;28;20045;-73
2022/12/12 03:01:41;;;;;;;44.50;18.35;;;;;;;-0.20;100.00;101088.81;4975189;28;20030;-76
2022/12/12 03:10:24;;;;;;;42.25;17.48;;;;;;;-0.20;100.00;101088.81;4996240;28;20038;-73
2022/12/12 03:13:09;;;;;;;42.38;18.50;;;;;;;-0.26;100.00;101085.38;4998907;28;20046;-75
2022/12/12 03:16:08;;;;;;;41.40;18.00;;;;;;;-0.26;100.00;101090.63;4994352;28;20554;-73
2022/12/12 03:18:48;;;;;;;36.00;15.18;;;;;;;-0.17;100.00;101081.78;4986167;28;20060;-72
2022/12/12 03:21:28;;;;;;;43.55;17.52;;;;;;;-0.36;100.00;101082.94;4992766;28;20397;-74
2022/12/12 03:23:58;;;;;;;40.45;17.20;;;;;;;-0.33;100.00;101083.75;4998228;28;20053;-73
2022/12/12 03:26:25;;;;;;;37.97;17.50;;;;;;;-0.45;100.00;101089.19;4982788;28;20743;-75
2022/12/12 03:29:07;;;;;;;42.28;18.13;;;;;;;-0.39;100.00;101081.25;4987347;28;20121;-76
2022/12/12 03:31:37;;;;;;;43.08;17.08;;;;;;;-0.39;100.00;101088.22;4992063;28;20042;-76
2022/12/12 03:34:13;;;;;;;42.15;18.50;;;;;;;-0.44;100.00;101090.91;4996319;28;20127;-74
2022/12/12 03:36:53;;;;;;;42.20;18.10;;;;;;;-0.64;100.00;101096.44;4974522;28;20040;-75
2022/12/12 03:39:48;;;;;;;43.40;17.90;;;;;;;-0.59;100.00;101094.59;4997856;28;20041;-75
2022/12/12 03:42:33;;;;;;;44.30;17.40;;;;;;;-0.80;100.00;101087.91;4979042;28;20061;-75
2022/12/12 03:45:35;;;;;;;40.33;17.63;;;;;;;-0.86;100.00;101094.94;4996252;28;20091;-75
2022/12/12 03:48:09;;;;;;;44.95;18.92;;;;;;;-0.87;100.00;101090.59;4979210;28;20058;-75
2022/12/12 03:50:59;;;;;;;41.53;18.40;;;;;;;-0.85;100.00;101094.09;4992104;28;20045;-75
2022/12/12 03:53:50;;;;;;;38.78;16.10;;;;;;;-0.95;100.00;101095.94;4997486;28;20716;-75
2022/12/12 03:56:30;;;;;;;42.65;17.05;;;;;;;-0.97;100.00;101095.09;4984616;28;20701;-75
2022/12/12 03:59:09;;;;;;;38.83;16.73;;;;;;;-0.98;100.00;101101.22;4985067;28;20049;-73
2022/12/12 04:01:49;;;;;;;43.90;18.25;;;;;;;-1.04;100.00;101101.28;4996535;28;20084;-76
2022/12/12 04:04:36;;;;;;;43.70;16.75;;;;;;;-1.05;100.00;101108.28;5000242;28;20037;-74
2022/12/12 04:07:22;;;;;;;47.35;18.35;;;;;;;-1.07;100.00;101107.41;4992506;28;20038;-75
2022/12/12 04:12:59;;;;;;;51.30;18.08;;;;;;;-1.14;100.00;101105.75;4995899;28;20069;-75
2022/12/12 04:15:53;;;;;;;47.88;18.63;;;;;;;-1.19;100.00;101102.31;4984116;28;20048;-74
2022/12/12 04:18:29;;;;;;;42.47;17.45;;;;;;;-1.19;100.00;101102.31;4995144;28;20041;-75
2022/12/12 04:24:04;;;;;;;41.60;17.42;;;;;;;-1.35;100.00;101101.63;4995065;28;20095;-74
2022/12/12 04:26:39;;;;;;;45.38;17.75;;;;;;;-1.40;100.00;101110.41;4972004;28;20069;-74
2022/12/12 04:29:16;;;;;;;53.28;19.90;;;;;;;-1.47;100.00;101108.72;4997314;28;20037;-74
2022/12/12 04:32:06;;;;;;;45.15;18.98;;;;;;;-1.53;100.00;101111.41;4997424;28;20030;-75
2022/12/12 04:34:40;;;;;;;48.97;18.48;;;;;;;-1.55;100.00;101118.41;4993016;28;20123;-74
2022/12/12 04:37:09;;;;;;;48.97;19.58;;;;;;;-1.58;100.00;101117.53;4994696;28;20038;-75
2022/12/12 04:39:38;;;;;;;55.50;19.05;;;;;;;-1.65;100.00;101115.00;4987242;28;20136;-74
2022/12/12 04:42:06;;;;;;;53.67;20.33;;;;;;;-1.69;100.00;101116.75;4997510;28;20294;-75
2022/12/12 04:44:36;;;;;;;49.90;19.90;;;;;;;-1.72;100.00;101118.53;4997098;28;20117;-75
2022/12/12 04:47:02;;;;;;;50.50;19.33;;;;;;;-1.76;100.00;101122.03;4983755;28;20057;-75
2022/12/12 04:49:31;;;;;;;52.28;21.80;;;;;;;-1.88;100.00;101120.41;4998430;28;20041;-75
2022/12/12 04:52:04;;;;;;;55.10;20.25;;;;;;;-1.87;100.00;101124.75;4999871;28;20957;-76
2022/12/12 04:54:41;;;;;;;51.20;19.40;;;;;;;-1.91;100.00;101129.16;4995884;28;20155;-74
2022/12/12 04:57:12;;;;;;;51.45;19.73;;;;;;;-1.92;100.00;101126.53;4993931;28;20049;-75
2022/12/12 04:59:37;;;;;;;51.17;20.38;;;;;;;-2.13;100.00;101131.03;4996717;28;20052;-74
2022/12/12 05:02:29;;;;;;;41.35;17.88;;;;;;;-2.11;100.00;101128.41;4984331;28;20880;-74
2022/12/12 05:05:18;;;;;;;43.42;18.27;;;;;;;-2.22;100.00;101133.69;4993227;28;20045;-74
2022/12/12 05:08:07;;;;;;;50.45;18.70;;;;;;;-2.29;100.00;101131.16;4990788;28;20069;-74
2022/12/12 05:10:34;;;;;;;51.90;18.95;;;;;;;-2.27;100.00;101134.59;4964124;28;20050;-74
2022/12/12 05:13:00;;;;;;;54.22;18.92;;;;;;;-2.30;100.00;101134.66;4996076;28;20124;-73
2022/12/12 05:15:26;;;;;;;58.47;21.05;;;;;;;-2.37;100.00;101134.66;4994841;28;20145;-75
2022/12/12 05:17:57;;;;;;;59.55;22.65;;;;;;;-2.28;100.00;101138.97;4964028;28;20038;-75
2022/12/12 05:20:23;;;;;;;62.92;23.42;;;;;;;-2.30;100.00;101139.88;4996804;28;20468;-74
2022/12/12 05:22:48;;;;;;;54.03;20.20;;;;;;;-2.29;100.00;101141.59;4995708;28;20042;-75
2022/12/12 05:25:14;;;;;;;55.67;19.70;;;;;;;-2.25;100.00;101149.41;4982505;28;20883;-75
2022/12/12 05:27:39;;;;;;;57.35;22.63;;;;;;;-2.22;100.00;101146.75;4996085;28;20132;-74
2022/12/12 05:30:05;;;;;;;60.67;21.30;;;;;;;-2.22;100.00;101156.34;4966599;28;20073;-73
2022/12/12 05:32:31;;;;;;;49.30;20.17;;;;;;;-2.44;100.00;101148.63;4983933;28;20149;-76
2022/12/12 05:34:56;;;;;;;54.13;19.60;;;;;;;-2.35;100.00;101143.38;4997536;28;20044;-75
2022/12/12 05:37:22;;;;;;;47.35;18.95;;;;;;;-2.39;100.00;101151.22;4998463;28;20500;-76
2022/12/12 05:39:47;;;;;;;44.67;18.33;;;;;;;-2.35;100.00;101148.59;4982825;28;20046;-75
2022/12/12 05:42:12;;;;;;;55.10;21.42;;;;;;;-2.52;100.00;101147.78;4990252;28;20045;-75
2022/12/12 05:44:38;;;;;;;51.42;22.13;;;;;;;-2.45;100.00;101153.88;5003271;28;20037;-76
2022/12/12 05:47:03;;;;;;;55.05;21.27;;;;;;;-2.42;100.00;101152.09;4985119;28;20049;-76
2022/12/12 05:49:29;;;;;;;55.85;19.98;;;;;;;-2.47;100.00;101155.59;4999406;28;20048;-75
2022/12/12 05:51:54;;;;;;;60.05;20.85;;;;;;;-2.46;100.00;101154.72;5000461;28;20029;-75
2022/12/12 05:54:20;;;;;;;47.03;20.35;;;;;;;-2.55;100.00;101149.56;4974316;28;20601;-75
2022/12/12 05:56:46;;;;;;;60.25;23.75;;;;;;;-2.73;100.00;101153.13;5001165;28;20354;-75
2022/12/12 05:59:11;;;;;;;60.38;23.40;;;;;;;-2.78;100.00;101157.50;5000125;28;20120;-73
2022/12/12 06:01:36;;;;;;;56.20;23.88;;;;;;;-2.74;100.00;101160.09;4973842;28;20135;-75
2022/12/12 06:04:02;;;;;;;62.72;22.77;;;;;;;-2.77;100.00;101165.31;4996271;28;20168;-74
2022/12/12 06:06:27;;;;;;;59.08;23.02;;;;;;;-2.76;100.00;101159.22;5002659;28;20539;-76
2022/12/12 06:08:53;;;;;;;57.80;23.17;;;;;;;-2.77;100.00;101159.22;4999673;28;20285;-75
2022/12/12 06:11:18;;;;;;;60.45;23.50;;;;;;;-2.79;100.00;101159.22;4999284;28;20125;-74
2022/12/12 06:13:44;;;;;;;69.55;22.85;;;;;;;-2.79;100.00;101160.97;4985795;28;20037;-74
2022/12/12 06:16:13;;;;;;;66.80;24.00;;;;;;;-2.79;100.00;101159.22;4971398;28;20042;-75
2022/12/12 06:18:38;;;;;;;52.58;21.65;;;;;;;-2.87;100.00;101161.84;4982328;28;20083;-75
2022/12/12 06:21:07;;;;;;;56.50;20.77;;;;;;;-3.01;100.00;101154.94;4980180;28;20125;-74
2022/12/12 06:23:36;;;;;;;52.30;20.17;;;;;;;-3.09;100.00;101162.81;4976964;28;20042;-75
2022/12/12 06:26:01;;;;;;;47.13;18.65;;;;;;;-3.15;100.00;101163.69;5003470;28;20069;-73
2022/12/12 06:28:26;;;;;;;54.95;19.95;;;;;;;-3.09;100.00;101161.94;5005589;28;20041;-74
2022/12/12 06:30:52;;;;;;;60.25;21.08;;;;;;;-3.03;100.00;101167.13;4967310;28;20042;-75
2022/12/12 06:33:17;;;;;;;59.33;21.52;;;;;;;-3.01;100.00;101171.50;4998722;28;20075;-75
2022/12/12 06:35:43;;;;;;;56.22;22.35;;;;;;;-2.99;100.00;101171.47;4997229;28;20025;-76
2022/12/12 06:38:08;;;;;;;53.50;21.52;;;;;;;-3.10;100.00;101181.06;4972805;28;20144;-75
2022/12/12 06:40:34;;;;;;;57.25;21.05;;;;;;;-3.24;100.00;101174.13;5001289;28;20575;-75
2022/12/12 06:42:59;;;;;;;52.60;19.58;;;;;;;-3.31;100.00;101177.63;4997572;28;20427;-75
2022/12/12 06:45:25;;;;;;;58.00;21.77;;;;;;;-3.29;100.00;101175.00;5002117;28;20029;-76
2022/12/12 06:47:51;;;;;;;53.38;22.85;;;;;;;-3.18;100.00;101186.28;4982779;28;20046;-75
2022/12/12 06:50:16;;;;;;;61.65;23.60;;;;;;;-3.19;100.00;101187.16;4999026;28;20557;-74
2022/12/12 06:52:41;;;;;;;58.92;23.05;;;;;;;-3.26;100.00;101186.31;4998257;28;20038;-75
2022/12/12 06:55:07;;;;;;;61.10;23.25;;;;;;;-3.31;100.00;101181.94;5002024;28;20045;-75
2022/12/12 06:57:33;;;;;;;70.57;25.27;;;;;;;-3.30;100.00;101186.31;4998298;28;20046;-74
2022/12/12 06:59:59;;;;;;;71.63;26.75;;;;;;;-3.28;100.00;101195.00;4998617;28;20347;-75
2022/12/12 07:02:24;;;;;;;64.22;25.20;;;;;;;-3.25;100.00;101185.44;4992404;28;20042;-75
2022/12/12 07:04:50;;;;;;;63.35;24.70;;;;;;;-3.21;100.00;101187.16;5003702;28;20033;-75
2022/12/12 07:07:15;;;;;;;70.50;26.00;;;;;;;-3.29;100.00;101185.44;5000474;28;20037;-73
2022/12/12 07:09:41;;;;;;;72.05;26.40;;;;;;;-3.31;100.00;101182.84;4997991;28;20042;-73
2022/12/12 07:12:06;;;;;;;67.10;25.48;;;;;;;-3.34;100.00;101177.63;4997461;28;20042;-73
2022/12/12 07:14:32;;;;;;;72.32;25.38;;;;;;;-3.38;100.00;101188.91;4985187;28;20038;-73
2022/12/12 07:16:57;;;;;;;68.25;24.50;;;;;;;-3.50;100.00;101187.19;4973797;28;20033;-76
2022/12/12 07:19:24;;;;;;;69.25;22.52;;;;;;;-3.43;100.00;101185.44;4998021;28;20124;-76
2022/12/12 07:21:49;;;;;;;68.35;23.52;;;;;;;-3.41;100.00;101192.41;4980830;28;20661;-73
2022/12/12 07:24:15;;;;;;;70.63;24.63;;;;;;;-3.50;100.00;101201.97;5003696;28;20041;-74
2022/12/12 07:26:40;;;;;;;75.68;26.20;;;;;;;-3.56;100.00;101199.38;4996326;28;20273;-74
2022/12/12 07:29:08;;;;;;;77.05;29.85;;;;;;;-3.44;100.00;101208.03;4997212;28;20413;-74
2022/12/12 07:31:33;;;;;;;74.80;27.98;;;;;;;-3.43;100.00;101206.28;4982906;28;20202;-75
2022/12/12 07:33:59;;;;;;;72.95;28.30;;;;;;;-3.46;100.00;101212.41;4989368;28;20400;-74
2022/12/12 07:36:24;;;;;;;72.95;27.15;;;;;;;-3.60;100.00;101218.47;4985937;28;20121;-75
2022/12/12 07:38:50;;;;;;;68.43;26.17;;;;;;;-3.58;100.00;101214.97;4992393;28;20042;-75
2022/12/12 07:41:17;;;;;;;79.78;28.40;;;;;;;-3.57;100.00;101216.72;4979199;28;20034;-75
2022/12/12 07:43:46;;;;;;;75.75;27.00;;;;;;;-3.63;100.00;101223.66;4996249;28;20128;-75
2022/12/12 07:46:18;;;;;;;71.18;26.67;;;;;;;-3.67;100.00;101217.56;4987457;28;20092;-74
2022/12/12 07:48:44;;;;;;;69.35;26.55;;;;;;;-3.65;100.00;101218.47;4982725;28;20131;-75
2022/12/12 07:51:10;;;;;;;73.88;27.42;;;;;;;-3.56;100.00;101215.88;4989172;28;20030;-74
2022/12/12 07:53:36;;;;;;;82.38;27.60;;;;;;;-3.61;100.00;101221.91;4997542;28;20037;-73
2022/12/12 07:56:06;;;;;;;73.30;27.13;;;;;;;-3.54;100.00;101221.06;4997591;28;20042;-76
2022/12/12 07:58:33;;;;;;;70.05;26.48;;;;;;;-3.62;100.00;101228.88;4996532;28;20129;-74
2022/12/12 08:00:58;;;;;;;74.25;25.30;;;;;;;-3.62;100.00;101223.66;4998962;28;20193;-74
2022/12/12 08:03:24;;;;;;;75.00;26.85;;;;;;;-3.55;100.00;101224.56;4989885;28;20030;-75
2022/12/12 08:05:49;;;;;;;68.85;26.63;;;;;;;-3.50;100.00;101231.50;4998074;28;20180;-75
2022/12/12 08:08:14;;;;;;;76.90;27.70;;;;;;;-3.41;100.00;101231.50;4972341;28;20088;-74
2022/12/12 08:10:40;;;;;;;65.32;26.77;;;;;;;-3.45;100.00;101232.38;4982433;28;20663;-76
2022/12/12 08:13:06;;;;;;;71.68;27.83;;;;;;;-3.50;100.00;101234.09;4987438;28;20053;-75
2022/12/12 08:15:31;;;;;;;75.00;26.38;;;;;;;-3.36;100.00;101241.03;4995638;28;20480;-74
2022/12/12 08:17:57;;;;;;;82.40;30.17;;;;;;;-3.43;100.00;101241.06;4997806;28;20038;-75
2022/12/12 08:20:22;;;;;;;77.70;30.13;;;;;;;-3.45;100.00;101241.94;4996408;28;20117;-74
2022/12/12 08:22:48;;;;;;;76.35;27.60;;;;;;;-3.35;100.00;101248.03;4978787;28;20503;-74
2022/12/12 08:25:14;;;;;;;82.97;30.45;;;;;;;-3.40;100.00;101241.06;4979457;28;20812;-74
2022/12/12 08:27:39;;;;;;;80.72;29.52;;;;;;;-3.34;100.00;101239.31;4983220;28;20038;-75
2022/12/12 08:30:05;;;;;;;74.07;27.83;;;;;;;-3.41;100.00;101243.69;4996270;28;20627;-74
2022/12/12 08:32:31;;;;;;;74.07;28.65;;;;;;;-3.38;100.00;101241.06;4977764;28;20042;-74
2022/12/12 08:34:59;;;;;;;75.25;28.17;;;;;;;-3.52;100.00;101240.16;4989444;28;20050;-74
2022/12/12 08:37:24;;;;;;;67.28;26.95;;;;;;;-3.41;100.00;101243.69;4995110;28;20405;-74
2022/12/12 08:39:50;;;;;;;74.65;27.83;;;;;;;-3.26;100.00;101248.88;4994585;28;20052;-76
2022/12/12 08:42:16;;;;;;;73.72;27.05;;;;;;;-3.11;100.00;101248.00;4978471;28;20056;-75
2022/12/12 08:44:41;;;;;;;70.43;26.30;;;;;;;-3.05;100.00;101247.13;4994069;28;20666;-76
2022/12/12 08:47:06;;;;;;;61.70;26.13;;;;;;;-2.94;100.00;101242.75;4994909;28;20130;-75
2022/12/12 08:49:32;;;;;;;71.00;27.40;;;;;;;-2.89;100.00;101249.72;4984970;28;20091;-76
2022/12/12 08:51:57;;;;;;;61.03;25.23;;;;;;;-2.92;100.00;101246.22;4981433;28;20313;-75
2022/12/12 08:54:24;;;;;;;62.58;25.40;;;;;;;-2.91;100.00;101251.47;4994065;28;20041;-76
2022/12/12 08:56:52;;;;;;;65.15;24.42;;;;;;;-2.93;100.00;101252.31;4987507;28;20033;-73
2022/12/12 08:59:18;;;;;;;66.03;29.05;;;;;;;-2.74;100.00;101258.38;4993616;28;20033;-77
2022/12/12 09:01:43;;;;;;;69.43;27.35;;;;;;;-2.67;100.00;101247.03;4995189;28;20391;-73
2022/12/12 09:04:09;;;;;;;68.68;27.70;;;;;;;-2.55;100.00;101251.38;4977891;28;20056;-76
2022/12/12 09:06:34;;;;;;;68.40;26.92;;;;;;;-2.63;100.00;101247.03;4994274;28;20045;-73
2022/12/12 09:09:00;;;;;;;70.75;29.17;;;;;;;-2.58;100.00;101244.41;4984307;28;20378;-75
2022/12/12 09:11:25;;;;;;;76.53;28.42;;;;;;;-2.62;100.00;101247.91;4967618;28;20931;-74
2022/12/12 09:13:51;;;;;;;70.28;27.33;;;;;;;-2.64;100.00;101249.66;4996406;28;20074;-74
2022/12/12 09:16:18;;;;;;;70.07;26.08;;;;;;;-2.58;100.00;101254.00;4982454;28;20034;-75
2022/12/12 09:18:43;;;;;;;80.38;26.83;;;;;;;-2.43;100.00;101244.34;4995323;28;20037;-73
2022/12/12 09:21:09;;;;;;;78.55;27.42;;;;;;;-2.38;100.00;101249.56;4968832;28;20046;-73
2022/12/12 09:23:35;;;;;;;70.40;26.02;;;;;;;-2.40;100.00;101252.19;4986674;28;20046;-76
2022/12/12 09:26:05;;;;;;;71.72;28.08;;;;;;;-2.33;100.00;101249.56;4995374;28;20125;-74
2022/12/12 09:28:30;;;;;;;72.43;27.42;;;;;;;-2.25;100.00;101250.41;5001056;28;20038;-75
2022/12/12 09:30:56;;;;;;;82.45;26.75;;;;;;;-2.20;100.00;101256.47;4999282;28;22003;-77
2022/12/12 09:33:21;;;;;;;63.47;27.55;;;;;;;-2.18;100.00;101258.19;4997105;28;20045;-75
2022/12/12 09:35:56;;;;;;;74.07;27.33;;;;;;;-2.22;100.00;101258.19;4998486;28;20037;-75
2022/12/12 09:38:22;;;;;;;89.05;30.73;;;;;;;-2.28;100.00;101250.41;4994407;28;20917;-77
2022/12/12 09:40:55;;;;;;;87.65;30.63;;;;;;;-2.18;100.00;101252.09;4998912;28;20054;-76
2022/12/12 09:43:33;;;;;;;91.60;31.58;;;;;;;-2.02;100.00;101256.38;4981481;28;20120;-77
2022/12/12 09:46:01;;;;;;;90.97;32.88;;;;;;;-2.06;100.00;101259.88;4981694;28;20227;-76
2022/12/12 09:48:37;;;;;;;87.82;34.47;;;;;;;-2.09;100.00;101262.50;4983338;28;20042;-77
2022/12/12 09:51:03;;;;;;;80.45;30.80;;;;;;;-1.95;100.00;101265.06;5003290;28;20046;-76
2022/12/12 09:53:34;;;;;;;79.82;31.52;;;;;;;-1.88;100.00;101256.28;4998857;28;20831;-77
2022/12/12 09:56:09;;;;;;;93.70;34.00;;;;;;;-1.89;100.00;101260.66;4995915;28;20037;-76
2022/12/12 09:59:26;;;;;;;75.47;29.13;;;;;;;-1.93;100.00;101258.94;4998075;28;20046;-75
2022/12/12 10:02:09;;;;;;;82.68;29.30;;;;;;;-1.86;100.00;101259.75;4897276;29;20397;-74
2022/12/12 10:05:07;;;;;;;73.65;26.55;;;;;;;-1.68;100.00;101258.78;4891603;29;20056;-76
2022/12/12 10:07:44;;;;;;;78.13;27.45;;;;;;;-1.75;100.00;101251.88;4858282;29;20151;-75
2022/12/12 10:10:12;;;;;;;77.72;28.25;;;;;;;-1.61;100.00;101258.75;4894324;29;20045;-75
2022/12/12 10:12:38;;;;;;;71.95;27.42;;;;;;;-1.63;100.00;101257.00;4896283;29;21127;-76
2022/12/12 10:15:07;;;;;;;65.65;26.83;;;;;;;-1.59;100.00;101261.34;4896286;29;20056;-75
2022/12/12 10:17:43;;;;;;;75.10;28.35;;;;;;;-1.53;100.00;101256.06;4880127;29;20055;-73
2022/12/12 10:20:18;;;;;;;81.25;29.10;;;;;;;-1.54;100.00;101259.56;4876378;29;20754;-75
2022/12/12 10:23:06;;;;;;;67.57;26.85;;;;;;;-1.69;100.00;101259.69;4891739;29;20299;-73
2022/12/12 10:25:47;;;;;;;76.82;28.75;;;;;;;-1.52;100.00;101259.56;4897648;29;20150;-77
2022/12/12 10:28:16;;;;;;;71.25;27.42;;;;;;;-1.45;100.00;101261.25;4896103;29;20048;-77
2022/12/12 10:31:12;;;;;;;71.13;26.75;;;;;;;-1.57;100.00;101257.81;4897469;29;20118;-75
2022/12/12 10:34:11;;;;;;;61.25;25.00;;;;;;;-1.43;100.00;101252.50;4898992;29;20067;-76
2022/12/12 10:36:54;;;;;;;68.38;26.33;;;;;;;-1.45;100.00;101251.66;4901298;28;20036;-73
2022/12/12 10:39:31;;;;;;;64.28;24.80;;;;;;;-1.29;100.00;101247.19;4957513;28;20034;-76
2022/12/12 10:42:28;;;;;;;69.47;25.98;;;;;;;-1.34;100.00;101243.72;4956779;28;20034;-73
2022/12/12 10:44:57;;;;;;;71.72;25.38;;;;;;;-1.40;100.00;101247.25;4882305;29;20190;-74
2022/12/12 10:47:22;;;;;;;63.88;24.30;;;;;;;-1.39;100.00;101246.38;4881510;29;20572;-75
2022/12/12 10:49:53;;;;;;;60.13;23.15;;;;;;;-1.45;100.00;101250.81;4897935;29;20129;-72
2022/12/12 10:52:21;;;;;;;52.28;23.30;;;;;;;-1.38;100.00;101248.09;4881853;29;20183;-75
2022/12/12 10:54:59;;;;;;;58.08;24.08;;;;;;;-1.51;100.00;101243.84;4897760;29;20202;-75
2022/12/12 10:57:34;;;;;;;61.40;23.08;;;;;;;-1.41;100.00;101239.41;4881836;29;20040;-74
2022/12/12 11:00:13;;;;;;;54.55;23.98;;;;;;;-1.34;100.00;101239.38;4881768;29;20050;-73
2022/12/12 11:02:42;;;;;;;61.00;25.17;;;;;;;-1.44;100.00;101237.69;4898535;29;20156;-73
2022/12/12 11:05:19;;;;;;;51.65;23.80;;;;;;;-1.32;100.00;101228.88;4882720;29;20071;-75
2022/12/12 11:07:48;;;;;;;58.20;24.23;;;;;;;-1.31;100.00;101236.75;4900802;29;20122;-76
2022/12/12 11:10:28;;;;;;;60.67;23.90;;;;;;;-1.30;100.00;101224.53;4883206;29;20071;-75
2022/12/12 11:13:12;;;;;;;55.50;23.35;;;;;;;-1.31;100.00;101226.28;4899010;29;20135;-73
2022/12/12 11:15:55;;;;;;;55.38;21.90;;;;;;;-1.12;100.00;101220.84;4896747;29;20080;-76
2022/12/12 11:18:22;;;;;;;59.42;23.48;;;;;;;-1.09;100.00;101224.31;4897554;29;20072;-75
2022/12/12 11:21:02;;;;;;;55.53;22.77;;;;;;;-1.07;100.00;101221.69;4904767;28;20182;-74
2022/12/12 11:23:29;;;;;;;55.15;21.90;;;;;;;-1.05;100.00;101228.66;4996525;28;20053;-75
2022/12/12 11:26:25;;;;;;;55.38;22.73;;;;;;;-1.07;100.00;101214.69;4977165;28;20138;-73
2022/12/12 11:28:58;;;;;;;59.83;21.75;;;;;;;-1.10;100.00;101217.38;4973735;28;20525;-74
2022/12/12 11:31:29;;;;;;;52.40;20.63;;;;;;;-1.27;100.00;101215.75;4979127;28;20136;-74